Terminal Aerodrome Forecast
Issued by NWS

Home | Current Version | Previous Version | Graphics & Text | Print | Product List | Glossary On
Versions: 1 2 3 4 5 6 7 8 9 10 11 12 13 14 15 16 17 18 19 20 21 22 23 24
000
FTUS43 KGRB 251042 AAA
TAFATW
TAF AMD
KATW 251042Z 2511/2606 13008KT 3SM -SHRA BR SCT004 OVC015
      WS012/21040KT
      TEMPO 2511/2512 1SM -SHRA BR BKN004
     FM251200 16013KT 5SM BR VCSH BKN006 OVC010
      TEMPO 2512/2516 3SM SHRA BKN012
     FM251800 23019G30KT P6SM BKN025
     FM260100 21011KT P6SM VCSH BKN035=

USA.gov is the U.S. government's official web portal to all federal, state and local government web resources and services.